createdAt,value
2022-12-17T00:02:36.043Z,75.63
2022-12-17T00:05:21.938Z,72.13
2022-12-17T00:08:15.336Z,73.47
2022-12-17T00:11:01.109Z,68.40
2022-12-17T00:13:46.744Z,68.40
2022-12-17T00:16:33.124Z,71.13
2022-12-17T00:19:18.504Z,67.90
2022-12-17T00:22:04.216Z,70.80
2022-12-17T00:24:49.716Z,74.77
2022-12-17T00:27:35.474Z,72.30
2022-12-17T00:30:20.915Z,71.57
2022-12-17T00:33:06.716Z,66.33
2022-12-17T00:36:06.145Z,67.03
2022-12-17T00:38:51.629Z,69.30
2022-12-17T00:41:37.551Z,74.47
2022-12-17T00:44:23.234Z,63.30
2022-12-17T00:47:09.427Z,72.20
2022-12-17T00:49:56.220Z,70.97
2022-12-17T00:52:43.803Z,60.43
2022-12-17T00:55:29.553Z,63.00
2022-12-17T00:58:15.678Z,69.77
2022-12-17T01:01:01.756Z,66.83
2022-12-17T01:03:47.833Z,73.70
2022-12-17T01:06:33.722Z,68.70
2022-12-17T01:09:19.987Z,63.60
2022-12-17T01:12:07.086Z,69.73
2022-12-17T01:14:52.500Z,72.90
2022-12-17T01:17:38.343Z,65.97
2022-12-17T01:20:24.226Z,65.73
2022-12-17T01:23:10.100Z,63.73
2022-12-17T01:25:56.331Z,68.13
2022-12-17T01:28:43.591Z,63.73
2022-12-17T01:31:34.631Z,72.07
2022-12-17T01:34:21.021Z,68.53
2022-12-17T01:37:06.424Z,70.23
2022-12-17T01:39:51.708Z,57.50
2022-12-17T01:42:37.225Z,64.53
2022-12-17T01:45:25.653Z,70.70
2022-12-17T01:48:21.326Z,72.70
2022-12-17T01:51:11.139Z,66.57
2022-12-17T01:54:07.909Z,71.83
2022-12-17T01:56:59.394Z,71.37
2022-12-17T01:59:57.354Z,72.97
2022-12-17T02:02:43.207Z,61.43
2022-12-17T02:05:28.654Z,55.37
2022-12-17T02:08:30.336Z,55.63
2022-12-17T02:11:36.267Z,42.73
2022-12-17T02:14:33.252Z,46.57
2022-12-17T02:17:25.133Z,42.40
2022-12-17T02:20:10.860Z,43.23
2022-12-17T02:23:15.546Z,43.00
2022-12-17T02:26:15.197Z,39.40
2022-12-17T02:29:06.184Z,41.10
2022-12-17T02:31:55.067Z,45.37
2022-12-17T02:34:42.558Z,41.57
2022-12-17T02:37:29.421Z,41.20
2022-12-17T02:40:15.355Z,44.77
2022-12-17T02:43:03.839Z,42.80
2022-12-17T02:45:54.388Z,42.77
2022-12-17T02:48:42.648Z,45.20
2022-12-17T02:51:29.155Z,47.47
2022-12-17T02:54:15.039Z,48.03
2022-12-17T02:57:00.477Z,46.47
2022-12-17T02:59:46.304Z,50.90
2022-12-17T03:02:34.902Z,51.40
2022-12-17T03:05:43.995Z,55.47
2022-12-17T03:08:26.255Z,54.63
2022-12-17T03:11:11.996Z,58.60
2022-12-17T03:13:57.271Z,56.53
2022-12-17T03:16:43.193Z,57.90
2022-12-17T03:19:29.345Z,57.63
2022-12-17T03:22:14.860Z,55.07
2022-12-17T03:25:00.254Z,55.27
2022-12-17T03:27:45.831Z,64.43
2022-12-17T03:30:35.786Z,59.77
2022-12-17T03:33:22.486Z,57.13
2022-12-17T03:36:11.981Z,58.97
2022-12-17T03:39:00.222Z,56.93
2022-12-17T03:41:45.635Z,58.80
2022-12-17T03:44:32.677Z,57.47
2022-12-17T03:47:17.992Z,60.70
2022-12-17T03:50:03.391Z,59.30
2022-12-17T03:52:48.925Z,55.93
2022-12-17T03:55:35.011Z,62.43
2022-12-17T03:58:20.577Z,67.47
2022-12-17T04:01:06.286Z,61.57
2022-12-17T04:03:51.746Z,59.30
2022-12-17T04:06:37.139Z,55.40
2022-12-17T04:09:22.551Z,60.10
2022-12-17T04:12:07.970Z,62.43
2022-12-17T04:14:53.285Z,55.97
2022-12-17T04:17:38.969Z,56.37
2022-12-17T04:20:25.071Z,59.40
2022-12-17T04:23:10.918Z,62.43
2022-12-17T04:25:56.185Z,64.17
2022-12-17T04:28:41.872Z,59.87
2022-12-17T04:31:27.320Z,51.43
2022-12-17T04:34:13.304Z,55.83
2022-12-17T04:36:59.149Z,56.53
2022-12-17T04:39:44.651Z,57.40
2022-12-17T04:42:30.118Z,55.47
2022-12-17T04:45:15.814Z,57.77
2022-12-17T04:48:01.098Z,53.73
2022-12-17T04:50:46.565Z,56.17
2022-12-17T04:53:31.973Z,61.80
2022-12-17T04:56:17.687Z,59.27
2022-12-17T04:59:02.870Z,55.30
2022-12-17T05:01:48.577Z,57.73
2022-12-17T05:04:33.683Z,55.57
2022-12-17T05:07:19.031Z,46.47
2022-12-17T05:10:04.652Z,56.40
2022-12-17T05:12:50.090Z,49.00
2022-12-17T05:15:37.245Z,48.13
2022-12-17T05:18:27.314Z,49.93
2022-12-17T05:21:12.517Z,43.60
2022-12-17T05:23:58.316Z,37.57
2022-12-17T05:26:46.465Z,45.40
2022-12-17T05:29:33.019Z,43.10
2022-12-17T05:32:18.686Z,41.77
2022-12-17T05:35:04.179Z,40.53
2022-12-17T05:37:50.320Z,41.53
2022-12-17T05:40:36.258Z,36.07
2022-12-17T05:43:24.517Z,40.90
2022-12-17T05:46:10.603Z,33.07
2022-12-17T05:48:56.036Z,44.73
2022-12-17T05:51:42.029Z,38.73
2022-12-17T05:54:27.674Z,30.40
2022-12-17T05:57:13.497Z,32.77
2022-12-17T05:59:59.456Z,34.97
2022-12-17T06:03:01.800Z,32.97
2022-12-17T06:05:47.048Z,33.37
2022-12-17T06:08:32.736Z,36.77
2022-12-17T06:11:18.800Z,37.80
2022-12-17T06:14:05.563Z,36.73
2022-12-17T06:16:51.152Z,34.20
2022-12-17T06:19:36.721Z,34.73
2022-12-17T06:22:22.060Z,36.57
2022-12-17T06:25:07.807Z,35.37
2022-12-17T06:27:53.127Z,35.43
2022-12-17T06:30:38.916Z,39.43
2022-12-17T06:33:29.682Z,42.53
2022-12-17T06:36:21.944Z,41.03
2022-12-17T06:39:08.937Z,40.80
2022-12-17T06:42:02.132Z,34.97
2022-12-17T06:44:49.849Z,42.47
2022-12-17T06:47:35.443Z,41.10
2022-12-17T06:50:20.828Z,36.60
2022-12-17T06:53:06.630Z,39.77
2022-12-17T06:55:52.021Z,43.10
2022-12-17T06:58:37.365Z,38.47
2022-12-17T07:01:22.946Z,38.50
2022-12-17T07:04:08.634Z,37.27
2022-12-17T07:06:54.061Z,38.50
2022-12-17T07:09:39.737Z,35.60
2022-12-17T07:12:25.180Z,31.03
2022-12-17T07:15:27.605Z,38.13
2022-12-17T07:18:15.269Z,36.77
2022-12-17T07:21:01.208Z,37.57
2022-12-17T07:23:46.722Z,33.63
2022-12-17T07:26:32.747Z,39.63
2022-12-17T07:29:18.518Z,41.40
2022-12-17T07:32:04.586Z,36.90
2022-12-17T07:34:50.222Z,32.90
2022-12-17T07:37:36.235Z,41.57
2022-12-17T07:40:21.736Z,45.87
2022-12-17T07:43:07.475Z,36.03
2022-12-17T07:45:52.869Z,44.67
2022-12-17T07:48:38.704Z,46.83
2022-12-17T07:51:37.606Z,53.70
2022-12-17T07:54:22.944Z,57.17
2022-12-17T07:57:08.175Z,54.03
2022-12-17T07:59:53.675Z,48.77
2022-12-17T08:02:39.416Z,46.13
2022-12-17T08:05:25.724Z,43.57
2022-12-17T08:08:10.786Z,41.93
2022-12-17T08:10:56.699Z,43.47
2022-12-17T08:13:41.785Z,41.43
2022-12-17T08:16:27.616Z,46.10
2022-12-17T08:19:12.838Z,51.63
2022-12-17T08:22:00.134Z,41.47
2022-12-17T08:24:45.439Z,44.10
2022-12-17T08:27:31.082Z,37.50
2022-12-17T08:30:16.362Z,33.30
2022-12-17T08:33:01.990Z,34.13
2022-12-17T08:35:47.242Z,36.53
2022-12-17T08:38:32.838Z,31.93
2022-12-17T08:41:19.034Z,37.23
2022-12-17T08:44:04.857Z,28.70
2022-12-17T08:46:50.193Z,37.90
2022-12-17T08:49:35.850Z,30.70
2022-12-17T08:52:21.476Z,35.90
2022-12-17T08:55:07.166Z,40.27
2022-12-17T08:57:52.230Z,37.63
2022-12-17T09:00:37.918Z,41.07
2022-12-17T09:03:23.255Z,41.57
2022-12-17T09:06:11.239Z,47.10
2022-12-17T09:08:56.470Z,38.33
2022-12-17T09:11:41.730Z,42.30
2022-12-17T09:14:27.235Z,53.67
2022-12-17T09:17:12.769Z,55.30
2022-12-17T09:19:58.076Z,42.20
2022-12-17T09:22:43.538Z,50.13
2022-12-17T09:25:29.001Z,50.90
2022-12-17T09:28:19.435Z,99.47
2022-12-17T09:31:06.526Z,97.50
2022-12-17T09:33:53.253Z,52.50
2022-12-17T09:36:38.699Z,51.73
2022-12-17T09:39:24.340Z,47.80
2022-12-17T09:42:18.390Z,35.03
2022-12-17T09:45:15.750Z,34.37
2022-12-17T09:48:47.629Z,30.50
2022-12-17T09:51:41.939Z,35.23
2022-12-17T09:55:01.408Z,36.77
2022-12-17T09:57:52.271Z,32.43
2022-12-17T10:00:40.984Z,33.00
2022-12-17T10:03:38.643Z,30.50
2022-12-17T10:06:35.615Z,29.37
2022-12-17T10:09:31.312Z,28.27
2022-12-17T10:12:21.264Z,34.40
2022-12-17T10:15:06.832Z,34.73
2022-12-17T10:17:52.120Z,33.50
2022-12-17T10:20:51.200Z,33.43
2022-12-17T10:23:43.929Z,30.97
2022-12-17T10:26:35.984Z,34.40
2022-12-17T10:29:30.071Z,26.60
2022-12-17T10:32:30.206Z,35.37
2022-12-17T10:35:15.760Z,31.13
2022-12-17T10:38:01.825Z,34.73
2022-12-17T10:40:50.102Z,30.90
2022-12-17T10:43:44.732Z,31.63
2022-12-17T10:46:30.202Z,33.73
2022-12-17T10:49:24.059Z,29.70
2022-12-17T10:52:09.231Z,32.67
2022-12-17T10:54:55.800Z,32.23
2022-12-17T10:57:54.803Z,33.67
2022-12-17T11:00:50.039Z,32.30
2022-12-17T11:04:05.763Z,28.43
2022-12-17T11:07:02.751Z,29.27
2022-12-17T11:09:53.796Z,38.33
2022-12-17T11:12:44.106Z,27.33
2022-12-17T11:15:43.172Z,31.87
2022-12-17T11:18:36.147Z,32.00
2022-12-17T11:21:30.634Z,32.50
2022-12-17T11:24:22.532Z,31.30
2022-12-17T11:27:12.178Z,30.57
2022-12-17T11:29:57.939Z,30.40
2022-12-17T11:32:53.790Z,33.33
2022-12-17T11:35:48.790Z,34.77
2022-12-17T11:38:58.800Z,36.97
2022-12-17T11:41:58.856Z,40.57
2022-12-17T11:45:16.907Z,43.13
2022-12-17T11:48:23.150Z,49.73
2022-12-17T11:51:17.532Z,33.40
2022-12-17T11:54:43.339Z,36.13
2022-12-17T11:58:06.985Z,35.20
2022-12-17T12:01:07.595Z,36.53
2022-12-17T12:03:53.002Z,29.50
2022-12-17T12:07:02.449Z,31.97
2022-12-17T12:09:53.893Z,31.97
2022-12-17T12:12:57.150Z,32.73
2022-12-17T12:15:52.353Z,35.43
2022-12-17T12:18:53.218Z,34.97
2022-12-17T12:22:02.609Z,39.10
2022-12-17T12:25:14.734Z,35.63
2022-12-17T12:28:25.321Z,38.30
2022-12-17T12:31:26.470Z,39.83
2022-12-17T12:34:19.735Z,38.37
2022-12-17T12:37:08.061Z,36.93
2022-12-17T12:39:58.672Z,42.33
2022-12-17T12:43:01.882Z,35.30
2022-12-17T12:45:59.648Z,34.83
2022-12-17T12:49:23.039Z,34.07
2022-12-17T12:52:10.968Z,40.37
2022-12-17T12:55:06.018Z,43.47
2022-12-17T12:58:25.018Z,42.17
2022-12-17T13:01:14.290Z,43.77
2022-12-17T13:03:59.493Z,43.27
2022-12-17T13:06:43.123Z,38.53
2022-12-17T13:09:15.968Z,48.17
2022-12-17T13:11:45.612Z,56.13
2022-12-17T13:14:18.456Z,59.37
2022-12-17T13:16:48.357Z,49.70
2022-12-17T13:19:36.619Z,44.27
2022-12-17T13:22:20.245Z,43.83
2022-12-17T13:25:23.492Z,40.23
2022-12-17T13:27:50.972Z,48.83
2022-12-17T13:30:17.693Z,48.40
2022-12-17T13:32:48.436Z,46.97
2022-12-17T13:35:27.622Z,62.03
2022-12-17T13:38:03.753Z,55.13
2022-12-17T13:41:00.140Z,51.33
2022-12-17T13:43:31.819Z,61.30
2022-12-17T13:45:59.342Z,63.63
2022-12-17T13:48:28.886Z,58.73
2022-12-17T13:51:02.031Z,63.43
2022-12-17T13:53:34.081Z,67.60
2022-12-17T13:56:01.363Z,74.30
2022-12-17T13:58:32.195Z,62.27
2022-12-17T14:01:10.273Z,58.53
2022-12-17T14:06:32.173Z,68.90
2022-12-17T14:08:59.870Z,87.23
2022-12-17T14:11:46.029Z,73.90
2022-12-17T14:14:28.780Z,90.10
2022-12-17T14:16:55.849Z,137.27
2022-12-17T14:19:24.323Z,124.83
2022-12-17T14:21:51.795Z,92.30
2022-12-17T14:24:23.232Z,151.17
2022-12-17T14:26:55.196Z,153.33
2022-12-17T14:29:29.483Z,143.37
2022-12-17T14:32:00.276Z,145.70
2022-12-17T14:34:27.872Z,162.07
2022-12-17T14:37:00.943Z,186.93
2022-12-17T14:39:31.341Z,217.83
2022-12-17T14:42:25.909Z,246.80
2022-12-17T14:44:54.647Z,251.07
2022-12-17T14:47:27.639Z,253.97
2022-12-17T14:50:07.698Z,218.07
2022-12-17T14:52:40.533Z,214.47
2022-12-17T14:55:22.992Z,170.03
2022-12-17T14:57:51.045Z,173.37
2022-12-17T15:00:18.715Z,122.50
2022-12-17T15:02:52.745Z,131.27
2022-12-17T15:05:20.580Z,137.50
2022-12-17T15:07:47.536Z,138.27
2022-12-17T15:10:20.514Z,108.20
2022-12-17T15:12:48.746Z,140.13
2022-12-17T15:15:16.412Z,100.87
2022-12-17T15:17:43.295Z,112.10
2022-12-17T15:20:17.590Z,113.13
2022-12-17T15:22:45.171Z,120.30
2022-12-17T15:25:18.292Z,109.07
2022-12-17T15:27:45.469Z,124.30
2022-12-17T15:30:17.537Z,114.47
2022-12-17T15:32:45.198Z,122.03
2022-12-17T15:35:13.413Z,116.13
2022-12-17T15:37:40.415Z,108.77
2022-12-17T15:40:10.690Z,97.57
2022-12-17T15:42:57.480Z,102.67
2022-12-17T15:45:27.689Z,101.23
2022-12-17T15:47:54.466Z,88.10
2022-12-17T15:50:21.662Z,95.80
2022-12-17T15:52:48.565Z,90.20
2022-12-17T15:55:16.249Z,88.40
2022-12-17T15:57:43.215Z,84.37
2022-12-17T16:00:10.948Z,72.43
2022-12-17T16:02:38.715Z,76.33
2022-12-17T16:05:06.302Z,233.77
2022-12-17T16:07:33.108Z,104.40
2022-12-17T16:10:04.861Z,99.17
2022-12-17T16:12:32.967Z,73.77
2022-12-17T16:15:00.035Z,86.63
2022-12-17T16:17:26.899Z,79.30
2022-12-17T16:19:53.964Z,107.60
2022-12-17T16:22:20.748Z,98.97
2022-12-17T16:24:47.835Z,101.70
2022-12-17T16:27:15.832Z,83.33
2022-12-17T16:29:42.788Z,82.00
2022-12-17T16:32:09.618Z,89.70
2022-12-17T16:34:36.890Z,88.30
2022-12-17T16:37:04.093Z,84.00
2022-12-17T16:39:31.466Z,89.80
2022-12-17T16:41:58.275Z,88.63
2022-12-17T16:44:25.383Z,78.83
2022-12-17T16:46:52.461Z,88.63
2022-12-17T16:49:21.849Z,92.20
2022-12-17T16:51:50.537Z,88.73
2022-12-17T16:54:20.427Z,103.27
2022-12-17T16:56:47.586Z,107.80
2022-12-17T16:59:16.527Z,95.77
2022-12-17T17:01:45.551Z,93.90
2022-12-17T17:04:14.386Z,104.27
2022-12-17T17:06:53.052Z,111.30
2022-12-17T17:09:21.872Z,111.57
2022-12-17T17:11:51.761Z,104.67
2022-12-17T17:14:19.856Z,106.87
2022-12-17T17:16:46.669Z,111.23
2022-12-17T17:19:13.604Z,109.90
2022-12-17T17:21:42.458Z,112.13
2022-12-17T17:24:20.859Z,105.73
2022-12-17T17:26:50.522Z,106.20
2022-12-17T17:29:17.611Z,119.00
2022-12-17T17:34:31.470Z,101.50
2022-12-17T17:36:58.482Z,105.33
2022-12-17T17:39:25.757Z,125.03
2022-12-17T17:41:52.742Z,119.47
2022-12-17T17:44:19.522Z,122.33
2022-12-17T17:46:46.657Z,133.23
2022-12-17T17:49:13.475Z,132.57
2022-12-17T17:54:30.168Z,142.43
2022-12-17T17:56:57.168Z,175.40
2022-12-17T17:59:30.916Z,163.37
2022-12-17T18:02:00.299Z,152.57
2022-12-17T18:04:27.393Z,128.03
2022-12-17T18:09:41.327Z,128.23
2022-12-17T18:12:26.978Z,145.73
2022-12-17T18:17:40.800Z,160.37
2022-12-17T18:20:09.709Z,171.83
2022-12-17T18:22:37.547Z,161.60
2022-12-17T18:25:05.490Z,163.87
2022-12-17T18:27:32.949Z,159.37
2022-12-17T18:30:00.101Z,170.97
2022-12-17T18:32:27.076Z,149.47
2022-12-17T18:34:54.125Z,150.70
2022-12-17T18:37:21.238Z,153.80
2022-12-17T18:39:49.200Z,151.37
2022-12-17T18:42:34.929Z,142.53
2022-12-17T18:45:02.120Z,134.90
2022-12-17T18:47:29.379Z,129.23
2022-12-17T18:49:56.119Z,132.57
2022-12-17T18:52:24.718Z,124.40
2022-12-17T18:54:51.551Z,117.80
2022-12-17T18:57:18.718Z,124.17
2022-12-17T18:59:45.771Z,117.97
2022-12-17T19:02:13.908Z,110.20
2022-12-17T19:04:41.433Z,105.77
2022-12-17T19:07:08.499Z,116.60
2022-12-17T19:09:36.005Z,102.90
2022-12-17T19:12:05.913Z,102.30
2022-12-17T19:14:34.127Z,105.17
2022-12-17T19:17:01.760Z,98.53
2022-12-17T19:19:28.695Z,103.90
2022-12-17T19:21:56.238Z,95.43
2022-12-17T19:24:23.464Z,93.17
2022-12-17T19:26:51.781Z,94.77
2022-12-17T19:29:20.007Z,94.27
2022-12-17T19:31:47.512Z,100.43
2022-12-17T19:34:16.173Z,95.13
2022-12-17T19:36:43.860Z,92.60
2022-12-17T19:39:16.991Z,97.07
2022-12-17T19:41:44.474Z,90.40
2022-12-17T19:44:14.632Z,95.57
2022-12-17T19:46:42.364Z,97.00
2022-12-17T19:49:12.317Z,91.93
2022-12-17T19:51:42.988Z,94.53
2022-12-17T19:54:12.458Z,96.97
2022-12-17T19:56:39.516Z,97.80
2022-12-17T19:59:08.081Z,92.40
2022-12-17T20:01:43.784Z,102.80
2022-12-17T20:04:13.298Z,103.17
2022-12-17T20:06:43.149Z,111.43
2022-12-17T20:09:10.593Z,116.50
2022-12-17T20:11:38.075Z,99.50
2022-12-17T20:14:15.505Z,116.30
2022-12-17T20:16:45.287Z,117.40
2022-12-17T20:19:15.355Z,117.50
2022-12-17T20:21:43.010Z,134.57
2022-12-17T20:24:10.843Z,136.53
2022-12-17T20:26:39.287Z,125.67
2022-12-17T20:29:06.906Z,138.80
2022-12-17T20:31:35.521Z,134.07
2022-12-17T20:34:08.086Z,158.63
2022-12-17T20:36:36.296Z,148.13
2022-12-17T20:39:03.692Z,145.23
2022-12-17T20:41:32.280Z,150.37
2022-12-17T20:44:05.008Z,145.73
2022-12-17T20:46:33.484Z,149.93
2022-12-17T20:49:03.754Z,140.43
2022-12-17T20:51:32.253Z,135.07
2022-12-17T20:54:00.797Z,150.87
2022-12-17T20:56:31.825Z,139.93
2022-12-17T20:59:02.525Z,128.70
2022-12-17T21:01:33.101Z,127.13
2022-12-17T21:04:01.739Z,122.97
2022-12-17T21:06:32.545Z,116.53
2022-12-17T21:08:59.774Z,136.37
2022-12-17T21:11:29.240Z,130.93
2022-12-17T21:13:57.015Z,105.80
2022-12-17T21:16:30.176Z,100.33
2022-12-17T21:18:59.126Z,102.40
2022-12-17T21:21:29.570Z,111.70
2022-12-17T21:23:57.894Z,104.97
2022-12-17T21:26:29.242Z,88.60
2022-12-17T21:28:58.114Z,89.63
2022-12-17T21:31:26.949Z,93.57
2022-12-17T21:33:57.875Z,85.23
2022-12-17T21:36:27.513Z,89.83
2022-12-17T21:38:54.920Z,83.40
2022-12-17T21:41:25.656Z,84.00
2022-12-17T21:43:54.698Z,85.77
2022-12-17T21:46:22.284Z,72.37
2022-12-17T21:48:50.347Z,81.43
2022-12-17T21:51:18.245Z,68.40
2022-12-17T21:53:46.265Z,65.53
2022-12-17T21:56:18.891Z,66.50
2022-12-17T21:58:47.068Z,65.43
2022-12-17T22:01:18.584Z,71.37
2022-12-17T22:03:52.267Z,67.40
2022-12-17T22:06:27.033Z,56.70
2022-12-17T22:09:02.605Z,62.17
2022-12-17T22:11:35.872Z,63.43
2022-12-17T22:14:08.097Z,59.23
2022-12-17T22:16:40.349Z,62.00
2022-12-17T22:19:13.049Z,57.53
2022-12-17T22:21:42.464Z,63.77
2022-12-17T22:24:18.591Z,73.50
2022-12-17T22:26:46.211Z,70.17
2022-12-17T22:29:33.329Z,66.23
2022-12-17T22:32:19.227Z,68.73
2022-12-17T22:35:40.627Z,69.00
2022-12-17T22:41:43.593Z,76.80
2022-12-17T22:44:28.919Z,74.77
2022-12-17T22:44:35.842Z,78.73
2022-12-17T22:46:16.653Z,82.23
2022-12-17T22:48:44.390Z,84.00
2022-12-17T22:51:13.568Z,88.73
2022-12-17T22:53:53.780Z,91.00
2022-12-17T22:56:43.661Z,87.63
2022-12-17T22:59:10.189Z,83.67
2022-12-17T23:01:37.005Z,86.07
2022-12-17T23:04:04.278Z,83.87
2022-12-17T23:06:31.233Z,83.63
2022-12-17T23:08:59.044Z,85.60
2022-12-17T23:11:27.898Z,90.60
2022-12-17T23:13:55.707Z,86.70
2022-12-17T23:16:22.851Z,81.07
2022-12-17T23:18:51.257Z,74.80
2022-12-17T23:21:23.863Z,85.82
2022-12-17T23:23:55.608Z,71.83
2022-12-17T23:26:27.387Z,73.47
2022-12-17T23:28:59.198Z,74.37
2022-12-17T23:31:27.911Z,81.00
2022-12-17T23:33:55.303Z,75.87
2022-12-17T23:36:24.698Z,76.73
2022-12-17T23:38:53.182Z,74.47
2022-12-17T23:41:22.974Z,74.60
2022-12-17T23:43:50.257Z,74.27
2022-12-17T23:46:18.865Z,77.47
2022-12-17T23:48:47.583Z,78.07
2022-12-17T23:51:17.203Z,71.20
2022-12-17T23:53:44.578Z,78.77
2022-12-17T23:56:23.221Z,92.13
2022-12-17T23:59:01.351Z,86.90
